sensor_id;sensor_type;location;lat;lon;timestamp;P1;durP1;ratioP1;P2;durP2;ratioP2
13560;SDS011;6852;51.686;5.314;2023-04-21T00:01:27;15.97;;;12.37;;
13560;SDS011;6852;51.686;5.314;2023-04-21T00:03:55;16.47;;;13.90;;
13560;SDS011;6852;51.686;5.314;2023-04-21T00:06:22;17.20;;;13.13;;
13560;SDS011;6852;51.686;5.314;2023-04-21T00:08:49;18.03;;;13.37;;
13560;SDS011;6852;51.686;5.314;2023-04-21T00:11:16;18.27;;;13.77;;
13560;SDS011;6852;51.686;5.314;2023-04-21T00:13:43;16.17;;;12.63;;
13560;SDS011;6852;51.686;5.314;2023-04-21T00:16:10;17.00;;;13.30;;
13560;SDS011;6852;51.686;5.314;2023-04-21T00:18:37;19.10;;;13.97;;
13560;SDS011;6852;51.686;5.314;2023-04-21T00:21:04;17.33;;;13.67;;
13560;SDS011;6852;51.686;5.314;2023-04-21T00:23:31;21.07;;;14.33;;
13560;SDS011;6852;51.686;5.314;2023-04-21T00:25:58;19.90;;;14.33;;
13560;SDS011;6852;51.686;5.314;2023-04-21T00:28:28;19.97;;;14.13;;
13560;SDS011;6852;51.686;5.314;2023-04-21T00:30:55;17.63;;;13.80;;
13560;SDS011;6852;51.686;5.314;2023-04-21T00:33:22;19.70;;;13.47;;
13560;SDS011;6852;51.686;5.314;2023-04-21T00:35:49;18.43;;;13.67;;
13560;SDS011;6852;51.686;5.314;2023-04-21T00:38:16;18.90;;;13.70;;
13560;SDS011;6852;51.686;5.314;2023-04-21T00:40:42;16.87;;;12.77;;
13560;SDS011;6852;51.686;5.314;2023-04-21T00:43:09;17.47;;;12.93;;
13560;SDS011;6852;51.686;5.314;2023-04-21T00:45:36;17.53;;;12.60;;
13560;SDS011;6852;51.686;5.314;2023-04-21T00:48:03;17.30;;;12.87;;
13560;SDS011;6852;51.686;5.314;2023-04-21T00:50:31;16.60;;;12.67;;
13560;SDS011;6852;51.686;5.314;2023-04-21T00:52:58;17.97;;;13.20;;
13560;SDS011;6852;51.686;5.314;2023-04-21T00:55:25;17.73;;;14.40;;
13560;SDS011;6852;51.686;5.314;2023-04-21T00:57:52;17.03;;;12.70;;
13560;SDS011;6852;51.686;5.314;2023-04-21T01:00:21;17.03;;;11.83;;
13560;SDS011;6852;51.686;5.314;2023-04-21T01:02:48;20.27;;;13.67;;
13560;SDS011;6852;51.686;5.314;2023-04-21T01:05:16;18.83;;;13.07;;
13560;SDS011;6852;51.686;5.314;2023-04-21T01:07:43;16.77;;;11.73;;
13560;SDS011;6852;51.686;5.314;2023-04-21T01:10:10;16.23;;;11.60;;
13560;SDS011;6852;51.686;5.314;2023-04-21T01:12:55;18.53;;;13.40;;
13560;SDS011;6852;51.686;5.314;2023-04-21T01:15:22;19.67;;;13.60;;
13560;SDS011;6852;51.686;5.314;2023-04-21T01:17:49;16.90;;;13.20;;
13560;SDS011;6852;51.686;5.314;2023-04-21T01:20:19;16.47;;;12.23;;
13560;SDS011;6852;51.686;5.314;2023-04-21T01:22:46;15.73;;;12.20;;
13560;SDS011;6852;51.686;5.314;2023-04-21T01:25:13;18.63;;;12.97;;
13560;SDS011;6852;51.686;5.314;2023-04-21T01:27:40;18.53;;;12.37;;
13560;SDS011;6852;51.686;5.314;2023-04-21T01:30:07;18.90;;;12.13;;
13560;SDS011;6852;51.686;5.314;2023-04-21T01:32:35;20.13;;;14.07;;
13560;SDS011;6852;51.686;5.314;2023-04-21T01:35:02;19.60;;;12.87;;
13560;SDS011;6852;51.686;5.314;2023-04-21T01:37:30;17.50;;;12.67;;
13560;SDS011;6852;51.686;5.314;2023-04-21T01:39:59;16.50;;;12.33;;
13560;SDS011;6852;51.686;5.314;2023-04-21T01:42:30;17.47;;;12.80;;
13560;SDS011;6852;51.686;5.314;2023-04-21T01:44:57;18.97;;;12.80;;
13560;SDS011;6852;51.686;5.314;2023-04-21T01:47:24;18.80;;;12.97;;
13560;SDS011;6852;51.686;5.314;2023-04-21T01:49:52;19.13;;;12.73;;
13560;SDS011;6852;51.686;5.314;2023-04-21T01:52:19;17.57;;;12.30;;
13560;SDS011;6852;51.686;5.314;2023-04-21T01:54:46;16.87;;;11.97;;
13560;SDS011;6852;51.686;5.314;2023-04-21T01:57:14;17.60;;;12.63;;
13560;SDS011;6852;51.686;5.314;2023-04-21T01:59:41;19.73;;;12.90;;
13560;SDS011;6852;51.686;5.314;2023-04-21T02:02:09;20.27;;;13.80;;
13560;SDS011;6852;51.686;5.314;2023-04-21T02:04:36;18.70;;;13.97;;
13560;SDS011;6852;51.686;5.314;2023-04-21T02:07:03;23.07;;;15.20;;
13560;SDS011;6852;51.686;5.314;2023-04-21T02:09:30;22.30;;;15.50;;
13560;SDS011;6852;51.686;5.314;2023-04-21T02:11:57;20.30;;;13.73;;
13560;SDS011;6852;51.686;5.314;2023-04-21T02:14:24;19.33;;;13.30;;
13560;SDS011;6852;51.686;5.314;2023-04-21T02:16:51;21.10;;;14.07;;
13560;SDS011;6852;51.686;5.314;2023-04-21T02:19:18;21.23;;;13.90;;
13560;SDS011;6852;51.686;5.314;2023-04-21T02:21:46;21.93;;;13.90;;
13560;SDS011;6852;51.686;5.314;2023-04-21T02:24:13;19.30;;;13.63;;
13560;SDS011;6852;51.686;5.314;2023-04-21T02:26:39;22.40;;;14.20;;
13560;SDS011;6852;51.686;5.314;2023-04-21T02:29:06;18.13;;;13.63;;
13560;SDS011;6852;51.686;5.314;2023-04-21T02:31:33;18.10;;;12.70;;
13560;SDS011;6852;51.686;5.314;2023-04-21T02:34:19;20.13;;;12.97;;
13560;SDS011;6852;51.686;5.314;2023-04-21T02:36:46;23.20;;;14.07;;
13560;SDS011;6852;51.686;5.314;2023-04-21T02:39:13;18.90;;;13.33;;
13560;SDS011;6852;51.686;5.314;2023-04-21T02:41:40;23.00;;;15.60;;
13560;SDS011;6852;51.686;5.314;2023-04-21T02:44:07;21.30;;;15.17;;
13560;SDS011;6852;51.686;5.314;2023-04-21T02:46:34;21.63;;;14.77;;
13560;SDS011;6852;51.686;5.314;2023-04-21T02:49:01;22.30;;;14.80;;
13560;SDS011;6852;51.686;5.314;2023-04-21T02:51:28;24.43;;;16.30;;
13560;SDS011;6852;51.686;5.314;2023-04-21T02:53:55;25.97;;;16.40;;
13560;SDS011;6852;51.686;5.314;2023-04-21T02:56:22;22.83;;;15.37;;
13560;SDS011;6852;51.686;5.314;2023-04-21T02:58:49;22.93;;;16.13;;
13560;SDS011;6852;51.686;5.314;2023-04-21T03:01:15;25.83;;;16.20;;
13560;SDS011;6852;51.686;5.314;2023-04-21T03:03:42;26.90;;;16.97;;
13560;SDS011;6852;51.686;5.314;2023-04-21T03:06:09;27.40;;;17.33;;
13560;SDS011;6852;51.686;5.314;2023-04-21T03:08:36;27.27;;;17.83;;
13560;SDS011;6852;51.686;5.314;2023-04-21T03:11:03;25.37;;;16.37;;
13560;SDS011;6852;51.686;5.314;2023-04-21T03:13:30;26.90;;;17.57;;
13560;SDS011;6852;51.686;5.314;2023-04-21T03:15:57;29.93;;;19.13;;
13560;SDS011;6852;51.686;5.314;2023-04-21T03:18:24;34.40;;;19.40;;
13560;SDS011;6852;51.686;5.314;2023-04-21T03:20:51;25.27;;;17.80;;
13560;SDS011;6852;51.686;5.314;2023-04-21T03:23:24;28.17;;;18.50;;
13560;SDS011;6852;51.686;5.314;2023-04-21T03:25:50;29.60;;;19.33;;
13560;SDS011;6852;51.686;5.314;2023-04-21T03:28:17;30.27;;;20.07;;
13560;SDS011;6852;51.686;5.314;2023-04-21T03:30:44;28.77;;;18.90;;
13560;SDS011;6852;51.686;5.314;2023-04-21T03:33:11;31.60;;;19.80;;
13560;SDS011;6852;51.686;5.314;2023-04-21T03:35:38;32.10;;;20.13;;
13560;SDS011;6852;51.686;5.314;2023-04-21T03:38:05;29.27;;;19.07;;
13560;SDS011;6852;51.686;5.314;2023-04-21T03:40:32;27.23;;;18.53;;
13560;SDS011;6852;51.686;5.314;2023-04-21T03:42:59;31.30;;;19.67;;
13560;SDS011;6852;51.686;5.314;2023-04-21T03:45:26;29.83;;;19.63;;
13560;SDS011;6852;51.686;5.314;2023-04-21T03:47:53;29.17;;;18.90;;
13560;SDS011;6852;51.686;5.314;2023-04-21T03:50:21;29.80;;;18.70;;
13560;SDS011;6852;51.686;5.314;2023-04-21T03:52:48;33.03;;;19.83;;
13560;SDS011;6852;51.686;5.314;2023-04-21T03:55:15;32.57;;;20.43;;
13560;SDS011;6852;51.686;5.314;2023-04-21T03:57:42;32.30;;;20.50;;
13560;SDS011;6852;51.686;5.314;2023-04-21T04:00:09;29.83;;;19.13;;
13560;SDS011;6852;51.686;5.314;2023-04-21T04:02:38;30.20;;;20.40;;
13560;SDS011;6852;51.686;5.314;2023-04-21T04:05:06;40.57;;;21.67;;
13560;SDS011;6852;51.686;5.314;2023-04-21T04:07:33;35.30;;;20.43;;
13560;SDS011;6852;51.686;5.314;2023-04-21T04:10:01;32.43;;;20.40;;
13560;SDS011;6852;51.686;5.314;2023-04-21T04:12:27;34.77;;;22.10;;
13560;SDS011;6852;51.686;5.314;2023-04-21T04:14:54;34.80;;;20.70;;
13560;SDS011;6852;51.686;5.314;2023-04-21T04:17:21;34.23;;;20.60;;
13560;SDS011;6852;51.686;5.314;2023-04-21T04:19:48;37.27;;;22.17;;
13560;SDS011;6852;51.686;5.314;2023-04-21T04:22:15;32.13;;;19.93;;
13560;SDS011;6852;51.686;5.314;2023-04-21T04:24:42;34.87;;;21.27;;
13560;SDS011;6852;51.686;5.314;2023-04-21T04:27:10;34.10;;;20.20;;
13560;SDS011;6852;51.686;5.314;2023-04-21T04:29:39;31.53;;;20.47;;
13560;SDS011;6852;51.686;5.314;2023-04-21T04:32:07;32.23;;;20.23;;
13560;SDS011;6852;51.686;5.314;2023-04-21T04:34:36;34.47;;;22.17;;
13560;SDS011;6852;51.686;5.314;2023-04-21T04:37:04;33.37;;;20.73;;
13560;SDS011;6852;51.686;5.314;2023-04-21T04:39:31;34.53;;;21.80;;
13560;SDS011;6852;51.686;5.314;2023-04-21T04:41:58;37.23;;;20.60;;
13560;SDS011;6852;51.686;5.314;2023-04-21T04:44:26;34.33;;;21.60;;
13560;SDS011;6852;51.686;5.314;2023-04-21T04:46:53;33.97;;;21.00;;
13560;SDS011;6852;51.686;5.314;2023-04-21T04:49:21;33.60;;;21.13;;
13560;SDS011;6852;51.686;5.314;2023-04-21T04:51:49;35.17;;;21.43;;
13560;SDS011;6852;51.686;5.314;2023-04-21T04:54:17;33.00;;;20.60;;
13560;SDS011;6852;51.686;5.314;2023-04-21T04:56:44;36.10;;;21.93;;
13560;SDS011;6852;51.686;5.314;2023-04-21T04:59:11;34.20;;;22.40;;
13560;SDS011;6852;51.686;5.314;2023-04-21T05:01:38;36.73;;;22.03;;
13560;SDS011;6852;51.686;5.314;2023-04-21T05:04:07;35.77;;;21.43;;
13560;SDS011;6852;51.686;5.314;2023-04-21T05:06:34;34.40;;;21.27;;
13560;SDS011;6852;51.686;5.314;2023-04-21T05:09:01;32.20;;;21.13;;
13560;SDS011;6852;51.686;5.314;2023-04-21T05:11:30;32.90;;;21.97;;
13560;SDS011;6852;51.686;5.314;2023-04-21T05:13:57;35.37;;;21.97;;
13560;SDS011;6852;51.686;5.314;2023-04-21T05:16:24;33.03;;;21.33;;
13560;SDS011;6852;51.686;5.314;2023-04-21T05:18:51;33.67;;;22.30;;
13560;SDS011;6852;51.686;5.314;2023-04-21T05:21:23;34.17;;;22.07;;
13560;SDS011;6852;51.686;5.314;2023-04-21T05:23:53;35.07;;;21.73;;
13560;SDS011;6852;51.686;5.314;2023-04-21T05:26:21;32.70;;;21.37;;
13560;SDS011;6852;51.686;5.314;2023-04-21T05:28:49;35.83;;;22.60;;
13560;SDS011;6852;51.686;5.314;2023-04-21T05:31:16;34.80;;;21.30;;
13560;SDS011;6852;51.686;5.314;2023-04-21T05:33:43;34.77;;;21.60;;
13560;SDS011;6852;51.686;5.314;2023-04-21T05:36:10;36.40;;;22.27;;
13560;SDS011;6852;51.686;5.314;2023-04-21T05:38:37;37.73;;;23.43;;
13560;SDS011;6852;51.686;5.314;2023-04-21T05:41:04;37.73;;;23.93;;
13560;SDS011;6852;51.686;5.314;2023-04-21T05:43:32;37.67;;;24.20;;
13560;SDS011;6852;51.686;5.314;2023-04-21T05:46:00;37.53;;;23.80;;
13560;SDS011;6852;51.686;5.314;2023-04-21T05:48:28;39.10;;;24.87;;
13560;SDS011;6852;51.686;5.314;2023-04-21T05:50:54;38.13;;;23.70;;
13560;SDS011;6852;51.686;5.314;2023-04-21T05:53:21;39.57;;;23.50;;
13560;SDS011;6852;51.686;5.314;2023-04-21T05:55:48;37.20;;;23.07;;
13560;SDS011;6852;51.686;5.314;2023-04-21T05:58:15;39.37;;;24.87;;
13560;SDS011;6852;51.686;5.314;2023-04-21T06:00:42;37.17;;;24.00;;
13560;SDS011;6852;51.686;5.314;2023-04-21T06:03:09;38.17;;;23.17;;
13560;SDS011;6852;51.686;5.314;2023-04-21T06:05:36;38.97;;;24.07;;
13560;SDS011;6852;51.686;5.314;2023-04-21T06:08:03;37.63;;;24.60;;
13560;SDS011;6852;51.686;5.314;2023-04-21T06:10:30;37.17;;;24.00;;
13560;SDS011;6852;51.686;5.314;2023-04-21T06:12:57;37.77;;;24.80;;
13560;SDS011;6852;51.686;5.314;2023-04-21T06:15:24;37.53;;;22.73;;
13560;SDS011;6852;51.686;5.314;2023-04-21T06:17:51;38.63;;;23.93;;
13560;SDS011;6852;51.686;5.314;2023-04-21T06:20:20;38.83;;;25.67;;
13560;SDS011;6852;51.686;5.314;2023-04-21T06:22:47;39.40;;;24.37;;
13560;SDS011;6852;51.686;5.314;2023-04-21T06:25:14;39.03;;;25.00;;
13560;SDS011;6852;51.686;5.314;2023-04-21T06:27:41;39.80;;;25.37;;
13560;SDS011;6852;51.686;5.314;2023-04-21T06:30:07;41.47;;;25.17;;
13560;SDS011;6852;51.686;5.314;2023-04-21T06:32:34;38.80;;;25.20;;
13560;SDS011;6852;51.686;5.314;2023-04-21T06:35:01;43.20;;;26.03;;
13560;SDS011;6852;51.686;5.314;2023-04-21T06:37:28;38.60;;;24.87;;
13560;SDS011;6852;51.686;5.314;2023-04-21T06:39:55;40.23;;;26.37;;
13560;SDS011;6852;51.686;5.314;2023-04-21T06:42:22;35.27;;;23.30;;
13560;SDS011;6852;51.686;5.314;2023-04-21T06:44:49;38.47;;;23.83;;
13560;SDS011;6852;51.686;5.314;2023-04-21T06:47:16;41.37;;;25.87;;
13560;SDS011;6852;51.686;5.314;2023-04-21T06:49:43;39.43;;;24.43;;
13560;SDS011;6852;51.686;5.314;2023-04-21T06:52:10;38.03;;;24.63;;
13560;SDS011;6852;51.686;5.314;2023-04-21T06:54:37;36.83;;;23.77;;
13560;SDS011;6852;51.686;5.314;2023-04-21T06:57:04;37.03;;;24.63;;
13560;SDS011;6852;51.686;5.314;2023-04-21T06:59:31;35.27;;;23.93;;
13560;SDS011;6852;51.686;5.314;2023-04-21T07:01:59;35.10;;;23.23;;
13560;SDS011;6852;51.686;5.314;2023-04-21T07:04:26;33.80;;;23.13;;
13560;SDS011;6852;51.686;5.314;2023-04-21T07:06:55;33.30;;;23.57;;
13560;SDS011;6852;51.686;5.314;2023-04-21T07:09:22;36.67;;;24.60;;
13560;SDS011;6852;51.686;5.314;2023-04-21T07:11:49;33.93;;;22.83;;
13560;SDS011;6852;51.686;5.314;2023-04-21T07:14:16;32.90;;;21.97;;
13560;SDS011;6852;51.686;5.314;2023-04-21T07:16:43;31.83;;;21.93;;
13560;SDS011;6852;51.686;5.314;2023-04-21T07:19:10;31.87;;;21.43;;
13560;SDS011;6852;51.686;5.314;2023-04-21T07:21:36;32.33;;;23.30;;
13560;SDS011;6852;51.686;5.314;2023-04-21T07:24:03;32.90;;;21.73;;
13560;SDS011;6852;51.686;5.314;2023-04-21T07:26:31;35.37;;;23.27;;
13560;SDS011;6852;51.686;5.314;2023-04-21T07:28:59;35.87;;;24.00;;
13560;SDS011;6852;51.686;5.314;2023-04-21T07:31:26;31.00;;;22.63;;
13560;SDS011;6852;51.686;5.314;2023-04-21T07:33:53;32.00;;;23.10;;
13560;SDS011;6852;51.686;5.314;2023-04-21T07:36:20;30.90;;;21.20;;
13560;SDS011;6852;51.686;5.314;2023-04-21T07:38:46;30.33;;;21.57;;
13560;SDS011;6852;51.686;5.314;2023-04-21T07:41:13;25.13;;;19.03;;
13560;SDS011;6852;51.686;5.314;2023-04-21T07:43:40;30.10;;;21.33;;
13560;SDS011;6852;51.686;5.314;2023-04-21T07:46:07;27.20;;;20.40;;
13560;SDS011;6852;51.686;5.314;2023-04-21T07:48:34;29.57;;;20.83;;
13560;SDS011;6852;51.686;5.314;2023-04-21T07:51:01;28.63;;;20.77;;
13560;SDS011;6852;51.686;5.314;2023-04-21T07:53:28;29.33;;;20.93;;
13560;SDS011;6852;51.686;5.314;2023-04-21T07:55:56;29.90;;;21.57;;
13560;SDS011;6852;51.686;5.314;2023-04-21T07:58:23;28.90;;;22.30;;
13560;SDS011;6852;51.686;5.314;2023-04-21T08:00:50;27.70;;;21.03;;
13560;SDS011;6852;51.686;5.314;2023-04-21T08:03:17;28.63;;;21.07;;
13560;SDS011;6852;51.686;5.314;2023-04-21T08:05:48;26.73;;;20.17;;
13560;SDS011;6852;51.686;5.314;2023-04-21T08:08:15;27.53;;;19.10;;
13560;SDS011;6852;51.686;5.314;2023-04-21T08:10:45;25.90;;;19.93;;
13560;SDS011;6852;51.686;5.314;2023-04-21T08:13:12;26.40;;;20.00;;
13560;SDS011;6852;51.686;5.314;2023-04-21T08:15:39;26.07;;;20.23;;
13560;SDS011;6852;51.686;5.314;2023-04-21T08:18:06;25.03;;;19.27;;
13560;SDS011;6852;51.686;5.314;2023-04-21T08:20:34;23.33;;;17.57;;
13560;SDS011;6852;51.686;5.314;2023-04-21T08:23:01;24.20;;;18.37;;
13560;SDS011;6852;51.686;5.314;2023-04-21T08:25:28;19.77;;;16.27;;
13560;SDS011;6852;51.686;5.314;2023-04-21T08:27:56;24.90;;;17.97;;
13560;SDS011;6852;51.686;5.314;2023-04-21T08:30:24;24.07;;;17.27;;
13560;SDS011;6852;51.686;5.314;2023-04-21T08:32:53;21.57;;;17.00;;
13560;SDS011;6852;51.686;5.314;2023-04-21T08:35:19;21.57;;;16.97;;
13560;SDS011;6852;51.686;5.314;2023-04-21T08:37:46;20.20;;;16.03;;
13560;SDS011;6852;51.686;5.314;2023-04-21T08:40:15;22.57;;;16.37;;
13560;SDS011;6852;51.686;5.314;2023-04-21T08:42:43;23.33;;;15.77;;
13560;SDS011;6852;51.686;5.314;2023-04-21T08:45:11;21.97;;;16.77;;
13560;SDS011;6852;51.686;5.314;2023-04-21T08:47:38;23.13;;;17.43;;
13560;SDS011;6852;51.686;5.314;2023-04-21T08:50:11;20.27;;;14.87;;
13560;SDS011;6852;51.686;5.314;2023-04-21T08:52:39;20.17;;;15.60;;
13560;SDS011;6852;51.686;5.314;2023-04-21T08:55:07;20.20;;;15.87;;
13560;SDS011;6852;51.686;5.314;2023-04-21T08:57:36;20.40;;;15.50;;
13560;SDS011;6852;51.686;5.314;2023-04-21T09:00:03;22.43;;;14.50;;
13560;SDS011;6852;51.686;5.314;2023-04-21T09:02:34;17.87;;;15.57;;
13560;SDS011;6852;51.686;5.314;2023-04-21T09:05:31;20.37;;;15.17;;
13560;SDS011;6852;51.686;5.314;2023-04-21T09:08:06;20.90;;;15.83;;
13560;SDS011;6852;51.686;5.314;2023-04-21T09:10:45;18.67;;;14.30;;
13560;SDS011;6852;51.686;5.314;2023-04-21T09:13:19;16.40;;;13.43;;
13560;SDS011;6852;51.686;5.314;2023-04-21T09:15:49;15.27;;;12.97;;
13560;SDS011;6852;51.686;5.314;2023-04-21T09:18:23;18.30;;;15.57;;
13560;SDS011;6852;51.686;5.314;2023-04-21T09:21:03;18.97;;;16.27;;
13560;SDS011;6852;51.686;5.314;2023-04-21T09:23:38;19.87;;;15.70;;
13560;SDS011;6852;51.686;5.314;2023-04-21T09:26:15;17.83;;;14.03;;
13560;SDS011;6852;51.686;5.314;2023-04-21T09:28:44;16.23;;;13.43;;
13560;SDS011;6852;51.686;5.314;2023-04-21T09:31:13;17.03;;;13.80;;
13560;SDS011;6852;51.686;5.314;2023-04-21T09:33:45;18.73;;;13.43;;
13560;SDS011;6852;51.686;5.314;2023-04-21T09:36:23;18.20;;;14.10;;
13560;SDS011;6852;51.686;5.314;2023-04-21T09:41:42;15.03;;;12.17;;
13560;SDS011;6852;51.686;5.314;2023-04-21T09:44:10;15.33;;;13.37;;
13560;SDS011;6852;51.686;5.314;2023-04-21T09:46:37;16.50;;;14.03;;
13560;SDS011;6852;51.686;5.314;2023-04-21T09:49:04;18.27;;;15.13;;
13560;SDS011;6852;51.686;5.314;2023-04-21T09:51:31;18.57;;;15.50;;
13560;SDS011;6852;51.686;5.314;2023-04-21T09:54:05;18.43;;;14.13;;
13560;SDS011;6852;51.686;5.314;2023-04-21T09:56:54;17.50;;;14.93;;
13560;SDS011;6852;51.686;5.314;2023-04-21T09:59:31;18.90;;;14.27;;
13560;SDS011;6852;51.686;5.314;2023-04-21T10:02:03;18.20;;;14.17;;
13560;SDS011;6852;51.686;5.314;2023-04-21T10:04:32;15.47;;;13.03;;
13560;SDS011;6852;51.686;5.314;2023-04-21T10:07:00;16.17;;;12.37;;
13560;SDS011;6852;51.686;5.314;2023-04-21T10:09:30;14.27;;;11.97;;
13560;SDS011;6852;51.686;5.314;2023-04-21T10:12:02;14.33;;;11.83;;
13560;SDS011;6852;51.686;5.314;2023-04-21T10:14:33;15.10;;;11.60;;
13560;SDS011;6852;51.686;5.314;2023-04-21T10:17:04;13.90;;;12.33;;
13560;SDS011;6852;51.686;5.314;2023-04-21T10:19:34;14.10;;;12.37;;
13560;SDS011;6852;51.686;5.314;2023-04-21T10:22:05;15.10;;;12.57;;
13560;SDS011;6852;51.686;5.314;2023-04-21T10:24:40;14.23;;;11.77;;
13560;SDS011;6852;51.686;5.314;2023-04-21T10:27:10;15.33;;;12.30;;
13560;SDS011;6852;51.686;5.314;2023-04-21T10:29:38;13.73;;;11.80;;
13560;SDS011;6852;51.686;5.314;2023-04-21T10:38:33;15.33;;;13.00;;
13560;SDS011;6852;51.686;5.314;2023-04-21T10:41:18;17.00;;;13.67;;
13560;SDS011;6852;51.686;5.314;2023-04-21T10:43:53;12.63;;;11.33;;
13560;SDS011;6852;51.686;5.314;2023-04-21T10:46:34;17.57;;;15.30;;
13560;SDS011;6852;51.686;5.314;2023-04-21T10:49:09;18.33;;;14.50;;
13560;SDS011;6852;51.686;5.314;2023-04-21T10:57:18;16.43;;;13.20;;
13560;SDS011;6852;51.686;5.314;2023-04-21T10:59:46;13.50;;;11.97;;
13560;SDS011;6852;51.686;5.314;2023-04-21T11:02:16;14.80;;;12.87;;
13560;SDS011;6852;51.686;5.314;2023-04-21T11:04:44;16.53;;;13.03;;
13560;SDS011;6852;51.686;5.314;2023-04-21T11:07:17;13.67;;;12.17;;
13560;SDS011;6852;51.686;5.314;2023-04-21T11:09:58;13.87;;;12.37;;
13560;SDS011;6852;51.686;5.314;2023-04-21T11:12:31;13.53;;;12.13;;
13560;SDS011;6852;51.686;5.314;2023-04-21T11:15:01;14.07;;;11.37;;
13560;SDS011;6852;51.686;5.314;2023-04-21T11:17:30;12.87;;;11.37;;
13560;SDS011;6852;51.686;5.314;2023-04-21T11:19:57;12.97;;;11.00;;
13560;SDS011;6852;51.686;5.314;2023-04-21T11:22:24;12.90;;;10.53;;
13560;SDS011;6852;51.686;5.314;2023-04-21T11:24:54;12.47;;;11.17;;
13560;SDS011;6852;51.686;5.314;2023-04-21T11:27:21;12.27;;;11.00;;
13560;SDS011;6852;51.686;5.314;2023-04-21T11:29:51;12.90;;;11.70;;
13560;SDS011;6852;51.686;5.314;2023-04-21T11:32:18;12.80;;;11.50;;
13560;SDS011;6852;51.686;5.314;2023-04-21T11:34:45;13.30;;;11.90;;
13560;SDS011;6852;51.686;5.314;2023-04-21T11:37:16;13.93;;;12.30;;
13560;SDS011;6852;51.686;5.314;2023-04-21T11:39:48;12.73;;;11.43;;
13560;SDS011;6852;51.686;5.314;2023-04-21T11:42:21;12.80;;;11.50;;
13560;SDS011;6852;51.686;5.314;2023-04-21T11:44:48;15.13;;;13.57;;
13560;SDS011;6852;51.686;5.314;2023-04-21T11:47:18;13.73;;;12.33;;
13560;SDS011;6852;51.686;5.314;2023-04-21T11:55:05;15.57;;;13.97;;
13560;SDS011;6852;51.686;5.314;2023-04-21T11:57:38;16.97;;;14.10;;
13560;SDS011;6852;51.686;5.314;2023-04-21T12:00:07;15.43;;;13.87;;
13560;SDS011;6852;51.686;5.314;2023-04-21T12:02:41;14.50;;;13.10;;
13560;SDS011;6852;51.686;5.314;2023-04-21T12:05:09;14.40;;;13.00;;
13560;SDS011;6852;51.686;5.314;2023-04-21T12:07:39;13.83;;;12.40;;
13560;SDS011;6852;51.686;5.314;2023-04-21T12:10:14;15.00;;;13.47;;
13560;SDS011;6852;51.686;5.314;2023-04-21T12:12:43;17.50;;;13.90;;
13560;SDS011;6852;51.686;5.314;2023-04-21T12:15:12;15.87;;;14.27;;
13560;SDS011;6852;51.686;5.314;2023-04-21T12:17:49;18.03;;;14.90;;
13560;SDS011;6852;51.686;5.314;2023-04-21T12:20:18;16.67;;;15.03;;
13560;SDS011;6852;51.686;5.314;2023-04-21T12:22:47;17.10;;;15.40;;
13560;SDS011;6852;51.686;5.314;2023-04-21T12:25:14;17.67;;;15.47;;
13560;SDS011;6852;51.686;5.314;2023-04-21T12:27:48;18.20;;;15.77;;
13560;SDS011;6852;51.686;5.314;2023-04-21T12:30:19;18.00;;;16.10;;
13560;SDS011;6852;51.686;5.314;2023-04-21T12:32:46;17.73;;;15.93;;
13560;SDS011;6852;51.686;5.314;2023-04-21T12:35:14;18.70;;;16.70;;
13560;SDS011;6852;51.686;5.314;2023-04-21T12:37:41;19.07;;;17.07;;
13560;SDS011;6852;51.686;5.314;2023-04-21T12:40:10;19.83;;;17.73;;
13560;SDS011;6852;51.686;5.314;2023-04-21T12:42:36;18.47;;;16.53;;
13560;SDS011;6852;51.686;5.314;2023-04-21T12:45:04;19.43;;;17.43;;
13560;SDS011;6852;51.686;5.314;2023-04-21T12:47:31;19.87;;;16.60;;
13560;SDS011;6852;51.686;5.314;2023-04-21T12:49:59;21.50;;;17.40;;
13560;SDS011;6852;51.686;5.314;2023-04-21T12:52:26;21.13;;;18.93;;
13560;SDS011;6852;51.686;5.314;2023-04-21T12:54:53;19.73;;;17.67;;
13560;SDS011;6852;51.686;5.314;2023-04-21T12:57:20;22.17;;;19.43;;
13560;SDS011;6852;51.686;5.314;2023-04-21T12:59:47;18.73;;;16.80;;
13560;SDS011;6852;51.686;5.314;2023-04-21T13:02:14;20.47;;;18.27;;
13560;SDS011;6852;51.686;5.314;2023-04-21T13:04:42;19.13;;;17.23;;
13560;SDS011;6852;51.686;5.314;2023-04-21T13:07:09;18.57;;;16.57;;
13560;SDS011;6852;51.686;5.314;2023-04-21T13:09:36;19.40;;;17.13;;
13560;SDS011;6852;51.686;5.314;2023-04-21T13:12:03;18.67;;;16.77;;
13560;SDS011;6852;51.686;5.314;2023-04-21T13:14:30;18.17;;;16.27;;
13560;SDS011;6852;51.686;5.314;2023-04-21T13:16:57;17.80;;;16.00;;
13560;SDS011;6852;51.686;5.314;2023-04-21T13:19:24;19.53;;;16.93;;
13560;SDS011;6852;51.686;5.314;2023-04-21T13:21:51;20.13;;;17.63;;
13560;SDS011;6852;51.686;5.314;2023-04-21T13:24:19;19.43;;;17.33;;
13560;SDS011;6852;51.686;5.314;2023-04-21T13:26:47;22.47;;;18.97;;
13560;SDS011;6852;51.686;5.314;2023-04-21T13:29:14;20.23;;;17.63;;
13560;SDS011;6852;51.686;5.314;2023-04-21T13:31:41;19.17;;;17.27;;
13560;SDS011;6852;51.686;5.314;2023-04-21T13:34:08;22.20;;;19.17;;
13560;SDS011;6852;51.686;5.314;2023-04-21T13:36:35;20.00;;;17.77;;
13560;SDS011;6852;51.686;5.314;2023-04-21T13:39:03;19.90;;;17.07;;
13560;SDS011;6852;51.686;5.314;2023-04-21T13:41:31;19.70;;;17.60;;
13560;SDS011;6852;51.686;5.314;2023-04-21T13:43:57;20.80;;;17.50;;
13560;SDS011;6852;51.686;5.314;2023-04-21T13:46:24;20.17;;;18.07;;
13560;SDS011;6852;51.686;5.314;2023-04-21T13:48:51;18.67;;;16.37;;
13560;SDS011;6852;51.686;5.314;2023-04-21T13:51:19;23.17;;;18.80;;
13560;SDS011;6852;51.686;5.314;2023-04-21T13:53:46;20.50;;;17.50;;
13560;SDS011;6852;51.686;5.314;2023-04-21T13:56:13;21.07;;;18.80;;
13560;SDS011;6852;51.686;5.314;2023-04-21T13:58:41;21.83;;;19.33;;
13560;SDS011;6852;51.686;5.314;2023-04-21T14:01:08;23.20;;;19.97;;
13560;SDS011;6852;51.686;5.314;2023-04-21T14:03:35;22.20;;;19.47;;
13560;SDS011;6852;51.686;5.314;2023-04-21T14:06:02;21.03;;;18.50;;
13560;SDS011;6852;51.686;5.314;2023-04-21T14:08:30;20.97;;;18.77;;
13560;SDS011;6852;51.686;5.314;2023-04-21T14:10:56;22.63;;;18.30;;
13560;SDS011;6852;51.686;5.314;2023-04-21T14:13:24;22.17;;;19.40;;
13560;SDS011;6852;51.686;5.314;2023-04-21T14:16:04;24.23;;;18.77;;
13560;SDS011;6852;51.686;5.314;2023-04-21T14:18:33;21.03;;;18.83;;
13560;SDS011;6852;51.686;5.314;2023-04-21T14:21:00;20.50;;;18.40;;
13560;SDS011;6852;51.686;5.314;2023-04-21T14:23:26;21.63;;;18.33;;
13560;SDS011;6852;51.686;5.314;2023-04-21T14:25:53;23.60;;;19.73;;
13560;SDS011;6852;51.686;5.314;2023-04-21T14:28:20;20.63;;;18.43;;
13560;SDS011;6852;51.686;5.314;2023-04-21T14:30:47;22.60;;;19.87;;
13560;SDS011;6852;51.686;5.314;2023-04-21T14:33:14;22.43;;;19.67;;
13560;SDS011;6852;51.686;5.314;2023-04-21T14:35:41;22.70;;;19.53;;
13560;SDS011;6852;51.686;5.314;2023-04-21T14:38:08;23.50;;;19.63;;
13560;SDS011;6852;51.686;5.314;2023-04-21T14:40:35;22.73;;;20.23;;
13560;SDS011;6852;51.686;5.314;2023-04-21T14:43:02;24.67;;;20.20;;
13560;SDS011;6852;51.686;5.314;2023-04-21T14:45:29;26.33;;;20.40;;
13560;SDS011;6852;51.686;5.314;2023-04-21T14:47:56;22.97;;;17.83;;
13560;SDS011;6852;51.686;5.314;2023-04-21T14:50:23;22.70;;;19.57;;
13560;SDS011;6852;51.686;5.314;2023-04-21T14:52:50;20.40;;;18.30;;
13560;SDS011;6852;51.686;5.314;2023-04-21T14:55:17;24.50;;;18.83;;
13560;SDS011;6852;51.686;5.314;2023-04-21T14:57:44;21.27;;;18.97;;
13560;SDS011;6852;51.686;5.314;2023-04-21T15:00:12;20.50;;;18.07;;